sensor_id;sensor_type;location;lat;lon;timestamp;pressure;altitude;pressure_sealevel;temperature;humidity
65276;BME280;51875;49.994;14.052;2023-08-01T00:00:11;97395.97;;;19.47;82.96
65276;BME280;51875;49.994;14.052;2023-08-01T00:01:43;97388.84;;;19.59;83.81
65276;BME280;51875;49.994;14.052;2023-08-01T00:02:59;97387.63;;;19.64;83.10
65276;BME280;51875;49.994;14.052;2023-08-01T00:04:14;97390.28;;;19.64;84.49
65276;BME280;51875;49.994;14.052;2023-08-01T00:05:30;97384.25;;;19.61;83.71
65276;BME280;51875;49.994;14.052;2023-08-01T00:06:45;97383.06;;;19.54;84.26
65276;BME280;51875;49.994;14.052;2023-08-01T00:08:01;97385.50;;;19.46;85.86
65276;BME280;51875;49.994;14.052;2023-08-01T00:09:17;97372.69;;;19.51;86.23
65276;BME280;51875;49.994;14.052;2023-08-01T00:10:33;97381.78;;;19.37;87.03
65276;BME280;51875;49.994;14.052;2023-08-01T00:11:48;97378.00;;;19.51;85.96
65276;BME280;51875;49.994;14.052;2023-08-01T00:13:04;97378.16;;;19.50;87.73
65276;BME280;51875;49.994;14.052;2023-08-01T00:14:20;97375.00;;;19.44;89.35
65276;BME280;51875;49.994;14.052;2023-08-01T00:15:35;97371.88;;;19.39;89.34
65276;BME280;51875;49.994;14.052;2023-08-01T00:16:51;97363.34;;;19.36;90.18
65276;BME280;51875;49.994;14.052;2023-08-01T00:18:07;97358.72;;;19.38;89.68
65276;BME280;51875;49.994;14.052;2023-08-01T00:19:22;97356.84;;;19.28;92.11
65276;BME280;51875;49.994;14.052;2023-08-01T00:20:38;97351.53;;;19.28;91.48
65276;BME280;51875;49.994;14.052;2023-08-01T00:21:54;97350.94;;;19.25;95.19
65276;BME280;51875;49.994;14.052;2023-08-01T00:23:10;97354.47;;;19.14;94.04
65276;BME280;51875;49.994;14.052;2023-08-01T00:24:26;97354.31;;;19.27;92.55
65276;BME280;51875;49.994;14.052;2023-08-01T00:25:41;97348.78;;;19.18;92.29
65276;BME280;51875;49.994;14.052;2023-08-01T00:26:57;97357.94;;;19.26;91.93
65276;BME280;51875;49.994;14.052;2023-08-01T00:28:12;97353.59;;;19.25;92.94
65276;BME280;51875;49.994;14.052;2023-08-01T00:29:29;97349.59;;;19.30;92.55
65276;BME280;51875;49.994;14.052;2023-08-01T00:30:45;97346.25;;;19.28;92.93
65276;BME280;51875;49.994;14.052;2023-08-01T00:32:00;97356.56;;;19.43;90.90
65276;BME280;51875;49.994;14.052;2023-08-01T00:33:16;97356.44;;;19.33;91.91
65276;BME280;51875;49.994;14.052;2023-08-01T00:34:31;97347.91;;;19.29;88.34
65276;BME280;51875;49.994;14.052;2023-08-01T00:35:53;97354.66;;;19.33;88.22
65276;BME280;51875;49.994;14.052;2023-08-01T00:37:09;97349.66;;;19.52;86.43
65276;BME280;51875;49.994;14.052;2023-08-01T00:38:25;97346.81;;;19.32;88.76
65276;BME280;51875;49.994;14.052;2023-08-01T00:39:40;97350.41;;;19.42;89.85
65276;BME280;51875;49.994;14.052;2023-08-01T00:40:56;97348.50;;;19.33;91.14
65276;BME280;51875;49.994;14.052;2023-08-01T00:42:11;97344.03;;;19.33;92.18
65276;BME280;51875;49.994;14.052;2023-08-01T00:43:27;97333.72;;;19.19;93.38
65276;BME280;51875;49.994;14.052;2023-08-01T00:44:42;97331.25;;;19.27;93.55
65276;BME280;51875;49.994;14.052;2023-08-01T00:46:00;97324.25;;;19.26;93.79
65276;BME280;51875;49.994;14.052;2023-08-01T00:47:16;97324.66;;;19.22;94.21
65276;BME280;51875;49.994;14.052;2023-08-01T00:48:32;97319.63;;;19.07;94.04
65276;BME280;51875;49.994;14.052;2023-08-01T00:49:47;97315.00;;;19.20;90.78
65276;BME280;51875;49.994;14.052;2023-08-01T00:51:05;97316.31;;;19.26;90.10
65276;BME280;51875;49.994;14.052;2023-08-01T00:52:22;97311.59;;;19.30;90.06
65276;BME280;51875;49.994;14.052;2023-08-01T00:53:37;97308.94;;;19.30;89.04
65276;BME280;51875;49.994;14.052;2023-08-01T00:54:54;97305.31;;;19.31;90.11
65276;BME280;51875;49.994;14.052;2023-08-01T00:56:10;97303.00;;;19.38;89.57
65276;BME280;51875;49.994;14.052;2023-08-01T00:57:25;97305.56;;;19.28;91.05
65276;BME280;51875;49.994;14.052;2023-08-01T00:58:41;97301.56;;;19.33;90.55
65276;BME280;51875;49.994;14.052;2023-08-01T00:59:56;97302.31;;;19.24;91.43
65276;BME280;51875;49.994;14.052;2023-08-01T01:01:12;97303.91;;;19.27;90.31
65276;BME280;51875;49.994;14.052;2023-08-01T01:02:28;97305.13;;;19.23;92.02
65276;BME280;51875;49.994;14.052;2023-08-01T01:03:43;97305.00;;;19.13;93.67
65276;BME280;51875;49.994;14.052;2023-08-01T01:05:00;97302.00;;;19.06;94.29
65276;BME280;51875;49.994;14.052;2023-08-01T01:06:31;97299.22;;;19.19;94.14
65276;BME280;51875;49.994;14.052;2023-08-01T01:07:47;97296.53;;;19.30;91.80
65276;BME280;51875;49.994;14.052;2023-08-01T01:09:15;97301.34;;;19.25;93.31
65276;BME280;51875;49.994;14.052;2023-08-01T01:10:31;97302.75;;;19.08;93.69
65276;BME280;51875;49.994;14.052;2023-08-01T01:11:47;97307.19;;;19.19;94.50
65276;BME280;51875;49.994;14.052;2023-08-01T01:13:02;97302.25;;;19.14;94.68
65276;BME280;51875;49.994;14.052;2023-08-01T01:14:18;97298.63;;;19.15;95.13
65276;BME280;51875;49.994;14.052;2023-08-01T01:15:34;97293.03;;;19.30;93.46
65276;BME280;51875;49.994;14.052;2023-08-01T01:16:49;97297.28;;;19.21;93.60
65276;BME280;51875;49.994;14.052;2023-08-01T01:18:06;97294.44;;;19.34;93.31
65276;BME280;51875;49.994;14.052;2023-08-01T01:19:22;97284.81;;;19.33;93.40
65276;BME280;51875;49.994;14.052;2023-08-01T01:20:38;97283.97;;;19.32;92.82
65276;BME280;51875;49.994;14.052;2023-08-01T01:21:53;97275.75;;;19.36;91.48
65276;BME280;51875;49.994;14.052;2023-08-01T01:23:10;97265.03;;;19.37;92.39
65276;BME280;51875;49.994;14.052;2023-08-01T01:24:26;97263.19;;;19.38;90.82
65276;BME280;51875;49.994;14.052;2023-08-01T01:25:43;97268.72;;;19.13;93.96
65276;BME280;51875;49.994;14.052;2023-08-01T01:27:01;97268.59;;;19.15;93.01
65276;BME280;51875;49.994;14.052;2023-08-01T01:28:18;97266.84;;;19.25;91.41
65276;BME280;51875;49.994;14.052;2023-08-01T01:29:36;97266.63;;;19.28;90.82
65276;BME280;51875;49.994;14.052;2023-08-01T01:30:52;97267.53;;;19.39;89.98
65276;BME280;51875;49.994;14.052;2023-08-01T01:32:08;97254.47;;;19.47;88.95
65276;BME280;51875;49.994;14.052;2023-08-01T01:33:25;97262.00;;;19.42;88.96
65276;BME280;51875;49.994;14.052;2023-08-01T01:34:40;97257.28;;;19.34;89.05
65276;BME280;51875;49.994;14.052;2023-08-01T01:35:56;97250.06;;;19.36;88.24
65276;BME280;51875;49.994;14.052;2023-08-01T01:37:11;97249.28;;;19.45;88.51
65276;BME280;51875;49.994;14.052;2023-08-01T01:38:27;97244.13;;;19.44;88.50
65276;BME280;51875;49.994;14.052;2023-08-01T01:39:42;97242.44;;;19.43;88.04
65276;BME280;51875;49.994;14.052;2023-08-01T01:40:58;97247.44;;;19.57;87.45
65276;BME280;51875;49.994;14.052;2023-08-01T01:42:13;97238.81;;;19.44;87.17
65276;BME280;51875;49.994;14.052;2023-08-01T01:43:29;97234.16;;;19.57;86.44
65276;BME280;51875;49.994;14.052;2023-08-01T01:44:44;97233.50;;;19.44;87.06
65276;BME280;51875;49.994;14.052;2023-08-01T01:46:00;97223.75;;;19.33;89.36
65276;BME280;51875;49.994;14.052;2023-08-01T01:47:17;97220.94;;;19.46;90.17
65276;BME280;51875;49.994;14.052;2023-08-01T01:48:32;97218.38;;;19.23;92.78
65276;BME280;51875;49.994;14.052;2023-08-01T01:49:48;97216.88;;;19.42;93.60
65276;BME280;51875;49.994;14.052;2023-08-01T01:51:03;97210.69;;;19.20;94.16
65276;BME280;51875;49.994;14.052;2023-08-01T01:52:19;97212.06;;;19.36;93.13
65276;BME280;51875;49.994;14.052;2023-08-01T01:53:35;97206.22;;;19.20;94.91
65276;BME280;51875;49.994;14.052;2023-08-01T01:54:50;97205.00;;;19.25;95.16
65276;BME280;51875;49.994;14.052;2023-08-01T01:56:05;97208.25;;;19.28;94.94
65276;BME280;51875;49.994;14.052;2023-08-01T01:57:21;97204.34;;;19.32;94.37
65276;BME280;51875;49.994;14.052;2023-08-01T01:58:37;97199.31;;;19.29;94.21
65276;BME280;51875;49.994;14.052;2023-08-01T01:59:52;97196.66;;;19.29;94.30
65276;BME280;51875;49.994;14.052;2023-08-01T02:01:07;97198.47;;;19.29;96.21
65276;BME280;51875;49.994;14.052;2023-08-01T02:02:23;97192.66;;;19.14;98.47
65276;BME280;51875;49.994;14.052;2023-08-01T02:03:39;97200.19;;;19.18;99.40
65276;BME280;51875;49.994;14.052;2023-08-01T02:04:54;97193.47;;;19.14;100.00
65276;BME280;51875;49.994;14.052;2023-08-01T02:06:10;97195.03;;;19.17;100.00
65276;BME280;51875;49.994;14.052;2023-08-01T02:07:25;97185.13;;;19.19;100.00
65276;BME280;51875;49.994;14.052;2023-08-01T02:08:41;97183.25;;;19.10;100.00
65276;BME280;51875;49.994;14.052;2023-08-01T02:09:56;97191.34;;;18.97;100.00
65276;BME280;51875;49.994;14.052;2023-08-01T02:11:12;97202.59;;;19.00;100.00
65276;BME280;51875;49.994;14.052;2023-08-01T02:12:28;97193.59;;;19.13;100.00
65276;BME280;51875;49.994;14.052;2023-08-01T02:13:47;97192.16;;;19.09;100.00
65276;BME280;51875;49.994;14.052;2023-08-01T02:15:02;97196.75;;;19.07;100.00
65276;BME280;51875;49.994;14.052;2023-08-01T02:16:18;97198.19;;;19.11;100.00
65276;BME280;51875;49.994;14.052;2023-08-01T02:17:33;97192.16;;;19.09;100.00
65276;BME280;51875;49.994;14.052;2023-08-01T02:18:49;97190.00;;;19.14;100.00
65276;BME280;51875;49.994;14.052;2023-08-01T02:20:05;97195.19;;;19.04;100.00
65276;BME280;51875;49.994;14.052;2023-08-01T02:21:21;97195.19;;;18.92;100.00
65276;BME280;51875;49.994;14.052;2023-08-01T02:22:36;97188.09;;;18.93;100.00
65276;BME280;51875;49.994;14.052;2023-08-01T02:23:52;97181.63;;;18.86;100.00
65276;BME280;51875;49.994;14.052;2023-08-01T02:25:08;97168.94;;;19.01;100.00
65276;BME280;51875;49.994;14.052;2023-08-01T02:26:23;97169.03;;;18.99;100.00
65276;BME280;51875;49.994;14.052;2023-08-01T02:27:39;97166.28;;;19.01;100.00
65276;BME280;51875;49.994;14.052;2023-08-01T02:28:55;97168.69;;;18.92;100.00
65276;BME280;51875;49.994;14.052;2023-08-01T02:30:11;97164.34;;;18.91;100.00
65276;BME280;51875;49.994;14.052;2023-08-01T02:31:26;97167.75;;;18.94;100.00
65276;BME280;51875;49.994;14.052;2023-08-01T02:32:42;97162.81;;;18.89;100.00
65276;BME280;51875;49.994;14.052;2023-08-01T02:33:57;97154.25;;;18.85;100.00
65276;BME280;51875;49.994;14.052;2023-08-01T02:35:13;97161.63;;;18.82;100.00
65276;BME280;51875;49.994;14.052;2023-08-01T02:36:28;97156.84;;;18.75;100.00
65276;BME280;51875;49.994;14.052;2023-08-01T02:37:44;97155.00;;;18.76;100.00
65276;BME280;51875;49.994;14.052;2023-08-01T02:39:00;97162.34;;;18.84;100.00
65276;BME280;51875;49.994;14.052;2023-08-01T02:40:15;97154.56;;;18.71;100.00
65276;BME280;51875;49.994;14.052;2023-08-01T02:41:31;97154.84;;;18.89;100.00
65276;BME280;51875;49.994;14.052;2023-08-01T02:42:46;97150.00;;;18.94;100.00
65276;BME280;51875;49.994;14.052;2023-08-01T02:44:02;97142.56;;;18.88;100.00
65276;BME280;51875;49.994;14.052;2023-08-01T02:45:18;97146.44;;;18.84;100.00
65276;BME280;51875;49.994;14.052;2023-08-01T02:46:33;97147.34;;;18.94;100.00
65276;BME280;51875;49.994;14.052;2023-08-01T02:47:49;97154.34;;;18.95;100.00
65276;BME280;51875;49.994;14.052;2023-08-01T02:49:04;97155.03;;;18.97;100.00
65276;BME280;51875;49.994;14.052;2023-08-01T02:50:20;97152.28;;;18.99;100.00
65276;BME280;51875;49.994;14.052;2023-08-01T02:51:35;97164.53;;;18.78;100.00
65276;BME280;51875;49.994;14.052;2023-08-01T02:52:51;97159.16;;;18.69;100.00
65276;BME280;51875;49.994;14.052;2023-08-01T02:54:06;97155.38;;;18.71;100.00
65276;BME280;51875;49.994;14.052;2023-08-01T02:55:22;97149.38;;;18.69;100.00
65276;BME280;51875;49.994;14.052;2023-08-01T02:56:37;97148.88;;;18.75;100.00
65276;BME280;51875;49.994;14.052;2023-08-01T02:57:56;97140.22;;;18.73;100.00
65276;BME280;51875;49.994;14.052;2023-08-01T02:59:12;97150.81;;;18.73;100.00
65276;BME280;51875;49.994;14.052;2023-08-01T03:00:27;97144.78;;;18.71;100.00
65276;BME280;51875;49.994;14.052;2023-08-01T03:01:43;97148.41;;;18.70;100.00
65276;BME280;51875;49.994;14.052;2023-08-01T03:02:58;97144.34;;;18.66;100.00
65276;BME280;51875;49.994;14.052;2023-08-01T03:04:14;97141.72;;;18.55;100.00
65276;BME280;51875;49.994;14.052;2023-08-01T03:05:30;97139.34;;;18.40;100.00
65276;BME280;51875;49.994;14.052;2023-08-01T03:06:45;97138.69;;;18.59;100.00
65276;BME280;51875;49.994;14.052;2023-08-01T03:08:01;97142.69;;;18.54;100.00
65276;BME280;51875;49.994;14.052;2023-08-01T03:09:16;97136.97;;;18.70;100.00
65276;BME280;51875;49.994;14.052;2023-08-01T03:10:32;97131.31;;;18.74;100.00
65276;BME280;51875;49.994;14.052;2023-08-01T03:11:47;97134.53;;;18.45;100.00
65276;BME280;51875;49.994;14.052;2023-08-01T03:13:03;97133.44;;;18.48;100.00
65276;BME280;51875;49.994;14.052;2023-08-01T03:14:19;97137.41;;;18.42;100.00
65276;BME280;51875;49.994;14.052;2023-08-01T03:15:34;97142.31;;;18.58;100.00
65276;BME280;51875;49.994;14.052;2023-08-01T03:16:50;97137.28;;;18.44;100.00
65276;BME280;51875;49.994;14.052;2023-08-01T03:18:05;97135.25;;;18.47;100.00
65276;BME280;51875;49.994;14.052;2023-08-01T03:19:21;97135.97;;;18.49;100.00
65276;BME280;51875;49.994;14.052;2023-08-01T03:20:36;97133.31;;;18.49;100.00
65276;BME280;51875;49.994;14.052;2023-08-01T03:21:52;97123.84;;;18.68;100.00
65276;BME280;51875;49.994;14.052;2023-08-01T03:23:07;97131.63;;;18.81;100.00
65276;BME280;51875;49.994;14.052;2023-08-01T03:24:23;97123.72;;;18.70;100.00
65276;BME280;51875;49.994;14.052;2023-08-01T03:25:39;97130.03;;;18.57;100.00
65276;BME280;51875;49.994;14.052;2023-08-01T03:26:54;97131.94;;;18.67;100.00
65276;BME280;51875;49.994;14.052;2023-08-01T03:28:10;97127.97;;;18.61;100.00
65276;BME280;51875;49.994;14.052;2023-08-01T03:29:25;97120.69;;;18.74;100.00
65276;BME280;51875;49.994;14.052;2023-08-01T03:30:41;97119.00;;;18.73;100.00
65276;BME280;51875;49.994;14.052;2023-08-01T03:31:56;97116.38;;;18.73;100.00
65276;BME280;51875;49.994;14.052;2023-08-01T03:33:12;97115.41;;;18.74;100.00
65276;BME280;51875;49.994;14.052;2023-08-01T03:34:28;97112.19;;;18.59;100.00
65276;BME280;51875;49.994;14.052;2023-08-01T03:35:43;97115.22;;;18.55;100.00
65276;BME280;51875;49.994;14.052;2023-08-01T03:36:59;97116.25;;;18.63;100.00
65276;BME280;51875;49.994;14.052;2023-08-01T03:38:14;97112.19;;;18.59;100.00
65276;BME280;51875;49.994;14.052;2023-08-01T03:39:30;97108.94;;;18.56;100.00
65276;BME280;51875;49.994;14.052;2023-08-01T03:40:45;97106.88;;;18.59;100.00
65276;BME280;51875;49.994;14.052;2023-08-01T03:42:02;97098.56;;;18.64;100.00
65276;BME280;51875;49.994;14.052;2023-08-01T03:43:17;97100.50;;;18.62;100.00
65276;BME280;51875;49.994;14.052;2023-08-01T03:44:38;97097.13;;;18.60;100.00
65276;BME280;51875;49.994;14.052;2023-08-01T03:45:54;97099.00;;;18.37;100.00
65276;BME280;51875;49.994;14.052;2023-08-01T03:47:09;97085.28;;;18.43;100.00
65276;BME280;51875;49.994;14.052;2023-08-01T03:48:25;97092.00;;;18.47;100.00
65276;BME280;51875;49.994;14.052;2023-08-01T03:49:41;97086.09;;;18.43;100.00
65276;BME280;51875;49.994;14.052;2023-08-01T03:50:56;97084.53;;;18.52;100.00
65276;BME280;51875;49.994;14.052;2023-08-01T03:52:11;97084.91;;;18.47;100.00
65276;BME280;51875;49.994;14.052;2023-08-01T03:53:27;97085.59;;;18.49;100.00
65276;BME280;51875;49.994;14.052;2023-08-01T03:54:43;97079.56;;;18.59;100.00
65276;BME280;51875;49.994;14.052;2023-08-01T03:55:58;97078.38;;;18.52;100.00
65276;BME280;51875;49.994;14.052;2023-08-01T03:57:14;97063.88;;;18.56;100.00
65276;BME280;51875;49.994;14.052;2023-08-01T03:58:30;97073.78;;;18.54;100.00
65276;BME280;51875;49.994;14.052;2023-08-01T03:59:48;97063.34;;;18.41;100.00
65276;BME280;51875;49.994;14.052;2023-08-01T04:01:04;97064.44;;;18.38;100.00
65276;BME280;51875;49.994;14.052;2023-08-01T04:02:21;97059.38;;;18.46;100.00
65276;BME280;51875;49.994;14.052;2023-08-01T04:03:37;97056.06;;;18.54;100.00
65276;BME280;51875;49.994;14.052;2023-08-01T04:04:52;97063.00;;;18.45;100.00
65276;BME280;51875;49.994;14.052;2023-08-01T04:06:08;97060.19;;;18.47;100.00
65276;BME280;51875;49.994;14.052;2023-08-01T04:07:24;97059.47;;;18.45;100.00
65276;BME280;51875;49.994;14.052;2023-08-01T04:08:39;97060.84;;;18.60;100.00
65276;BME280;51875;49.994;14.052;2023-08-01T04:09:55;97056.25;;;18.62;100.00
65276;BME280;51875;49.994;14.052;2023-08-01T04:11:10;97055.38;;;18.52;100.00
65276;BME280;51875;49.994;14.052;2023-08-01T04:12:26;97048.47;;;18.61;100.00
65276;BME280;51875;49.994;14.052;2023-08-01T04:13:42;97050.59;;;18.67;100.00
65276;BME280;51875;49.994;14.052;2023-08-01T04:14:58;97052.72;;;18.52;100.00
65276;BME280;51875;49.994;14.052;2023-08-01T04:16:13;97044.69;;;18.63;100.00
65276;BME280;51875;49.994;14.052;2023-08-01T04:17:29;97053.94;;;18.69;100.00
65276;BME280;51875;49.994;14.052;2023-08-01T04:18:45;97047.94;;;18.67;100.00
65276;BME280;51875;49.994;14.052;2023-08-01T04:20:00;97052.63;;;18.42;100.00
65276;BME280;51875;49.994;14.052;2023-08-01T04:21:16;97056.72;;;18.46;100.00
65276;BME280;51875;49.994;14.052;2023-08-01T04:22:31;97057.91;;;18.42;100.00
65276;BME280;51875;49.994;14.052;2023-08-01T04:23:47;97055.41;;;18.41;100.00
65276;BME280;51875;49.994;14.052;2023-08-01T04:25:02;97063.09;;;18.44;100.00
65276;BME280;51875;49.994;14.052;2023-08-01T04:26:18;97061.50;;;18.53;100.00
65276;BME280;51875;49.994;14.052;2023-08-01T04:27:34;97057.09;;;18.42;100.00
65276;BME280;51875;49.994;14.052;2023-08-01T04:28:49;97060.06;;;18.48;100.00
65276;BME280;51875;49.994;14.052;2023-08-01T04:30:05;97053.28;;;18.56;100.00
65276;BME280;51875;49.994;14.052;2023-08-01T04:31:21;97051.56;;;18.66;100.00
65276;BME280;51875;49.994;14.052;2023-08-01T04:32:37;97048.63;;;18.69;100.00
65276;BME280;51875;49.994;14.052;2023-08-01T04:33:52;97048.78;;;18.68;100.00
65276;BME280;51875;49.994;14.052;2023-08-01T04:35:08;97049.16;;;18.63;100.00
65276;BME280;51875;49.994;14.052;2023-08-01T04:36:24;97048.91;;;18.66;100.00
65276;BME280;51875;49.994;14.052;2023-08-01T04:37:39;97045.97;;;18.69;100.00
65276;BME280;51875;49.994;14.052;2023-08-01T04:38:54;97050.41;;;18.80;100.00
65276;BME280;51875;49.994;14.052;2023-08-01T04:40:10;97041.22;;;18.84;100.00
65276;BME280;51875;49.994;14.052;2023-08-01T04:41:26;97043.09;;;18.72;100.00
65276;BME280;51875;49.994;14.052;2023-08-01T04:42:41;97041.81;;;18.88;100.00
65276;BME280;51875;49.994;14.052;2023-08-01T04:43:57;97045.34;;;18.77;100.00
65276;BME280;51875;49.994;14.052;2023-08-01T04:45:12;97041.81;;;18.88;100.00
65276;BME280;51875;49.994;14.052;2023-08-01T04:46:29;97039.00;;;18.68;100.00
65276;BME280;51875;49.994;14.052;2023-08-01T04:47:45;97041.16;;;18.74;100.00
65276;BME280;51875;49.994;14.052;2023-08-01T04:49:00;97035.66;;;18.66;100.00
65276;BME280;51875;49.994;14.052;2023-08-01T04:50:16;97040.31;;;18.74;100.00
65276;BME280;51875;49.994;14.052;2023-08-01T04:51:32;97036.09;;;18.71;100.00
65276;BME280;51875;49.994;14.052;2023-08-01T04:52:47;97038.28;;;18.66;100.00
65276;BME280;51875;49.994;14.052;2023-08-01T04:54:02;97037.22;;;18.69;100.00
65276;BME280;51875;49.994;14.052;2023-08-01T04:55:18;97036.19;;;18.81;100.00
65276;BME280;51875;49.994;14.052;2023-08-01T04:56:34;97030.72;;;18.83;100.00
65276;BME280;51875;49.994;14.052;2023-08-01T04:57:49;97033.06;;;18.76;100.00
65276;BME280;51875;49.994;14.052;2023-08-01T04:59:05;97025.25;;;18.96;100.00
65276;BME280;51875;49.994;14.052;2023-08-01T05:00:20;97035.56;;;18.99;100.00
65276;BME280;51875;49.994;14.052;2023-08-01T05:01:36;97029.91;;;19.03;100.00
65276;BME280;51875;49.994;14.052;2023-08-01T05:02:52;97029.56;;;18.97;100.00
65276;BME280;51875;49.994;14.052;2023-08-01T05:04:07;97025.03;;;18.87;100.00
65276;BME280;51875;49.994;14.052;2023-08-01T05:05:23;97025.63;;;18.91;100.00
65276;BME280;51875;49.994;14.052;2023-08-01T05:06:38;97025.56;;;18.81;100.00
65276;BME280;51875;49.994;14.052;2023-08-01T05:07:55;97022.28;;;19.10;100.00
65276;BME280;51875;49.994;14.052;2023-08-01T05:09:11;97019.66;;;18.99;100.00
65276;BME280;51875;49.994;14.052;2023-08-01T05:10:26;97012.16;;;18.83;100.00
65276;BME280;51875;49.994;14.052;2023-08-01T05:11:42;97018.44;;;18.82;100.00
65276;BME280;51875;49.994;14.052;2023-08-01T05:12:57;97012.16;;;18.83;100.00
65276;BME280;51875;49.994;14.052;2023-08-01T05:14:13;97013.28;;;18.80;100.00
65276;BME280;51875;49.994;14.052;2023-08-01T05:15:29;97016.69;;;18.92;100.00
65276;BME280;51875;49.994;14.052;2023-08-01T05:16:44;97014.75;;;18.52;100.00
65276;BME280;51875;49.994;14.052;2023-08-01T05:18:00;97015.63;;;18.73;100.00
65276;BME280;51875;49.994;14.052;2023-08-01T05:19:15;96999.25;;;18.68;100.00
65276;BME280;51875;49.994;14.052;2023-08-01T05:20:31;96999.38;;;18.88;100.00
65276;BME280;51875;49.994;14.052;2023-08-01T05:21:49;97001.78;;;18.70;100.00
65276;BME280;51875;49.994;14.052;2023-08-01T05:23:04;96999.44;;;18.55;100.00
65276;BME280;51875;49.994;14.052;2023-08-01T05:24:20;96994.00;;;18.57;100.00
65276;BME280;51875;49.994;14.052;2023-08-01T05:25:35;96998.41;;;18.68;100.00
65276;BME280;51875;49.994;14.052;2023-08-01T05:26:51;96996.16;;;18.63;100.00
65276;BME280;51875;49.994;14.052;2023-08-01T05:28:06;96995.94;;;18.55;100.00
65276;BME280;51875;49.994;14.052;2023-08-01T05:29:22;96993.28;;;18.33;100.00
65276;BME280;51875;49.994;14.052;2023-08-01T05:30:38;96994.09;;;18.45;100.00
65276;BME280;51875;49.994;14.052;2023-08-01T05:31:53;96994.53;;;18.51;100.00
65276;BME280;51875;49.994;14.052;2023-08-01T05:33:09;96999.88;;;18.60;100.00
65276;BME280;51875;49.994;14.052;2023-08-01T05:34:24;97000.53;;;18.31;100.00
65276;BME280;51875;49.994;14.052;2023-08-01T05:35:40;96997.06;;;18.31;100.00
65276;BME280;51875;49.994;14.052;2023-08-01T05:36:55;96996.25;;;18.40;100.00
65276;BME280;51875;49.994;14.052;2023-08-01T05:38:11;96990.66;;;18.55;100.00
65276;BME280;51875;49.994;14.052;2023-08-01T05:39:26;96995.56;;;18.38;100.00
65276;BME280;51875;49.994;14.052;2023-08-01T05:40:42;96995.06;;;18.44;100.00
65276;BME280;51875;49.994;14.052;2023-08-01T05:41:58;96997.59;;;18.34;100.00
65276;BME280;51875;49.994;14.052;2023-08-01T05:43:13;96995.34;;;18.30;100.00
65276;BME280;51875;49.994;14.052;2023-08-01T05:44:28;96996.44;;;18.27;100.00
65276;BME280;51875;49.994;14.052;2023-08-01T05:45:44;96991.81;;;18.41;100.00
65276;BME280;51875;49.994;14.052;2023-08-01T05:47:00;96992.06;;;18.38;100.00
65276;BME280;51875;49.994;14.052;2023-08-01T05:48:15;96989.75;;;18.23;100.00
65276;BME280;51875;49.994;14.052;2023-08-01T05:49:31;96990.69;;;18.22;100.00
65276;BME280;51875;49.994;14.052;2023-08-01T05:50:46;96985.78;;;18.17;100.00
65276;BME280;51875;49.994;14.052;2023-08-01T05:52:02;96983.47;;;18.24;100.00
65276;BME280;51875;49.994;14.052;2023-08-01T05:53:17;96989.53;;;18.36;100.00
65276;BME280;51875;49.994;14.052;2023-08-01T05:54:33;96978.94;;;18.36;100.00
65276;BME280;51875;49.994;14.052;2023-08-01T05:55:49;96977.63;;;18.09;100.00
65276;BME280;51875;49.994;14.052;2023-08-01T05:57:05;96978.72;;;18.28;100.00
65276;BME280;51875;49.994;14.052;2023-08-01T05:58:20;96970.47;;;18.21;100.00
65276;BME280;51875;49.994;14.052;2023-08-01T05:59:36;96968.22;;;18.16;100.00
65276;BME280;51875;49.994;14.052;2023-08-01T06:00:52;96969.69;;;17.98;100.00
65276;BME280;51875;49.994;14.052;2023-08-01T06:02:07;96972.44;;;18.07;100.00
65276;BME280;51875;49.994;14.052;2023-08-01T06:03:23;96965.72;;;17.92;100.00
65276;BME280;51875;49.994;14.052;2023-08-01T06:04:39;96972.28;;;18.20;100.00
65276;BME280;51875;49.994;14.052;2023-08-01T06:05:54;96962.00;;;18.06;100.00
65276;BME280;51875;49.994;14.052;2023-08-01T06:07:10;96966.28;;;18.18;100.00
65276;BME280;51875;49.994;14.052;2023-08-01T06:08:25;96968.44;;;18.13;100.00
65276;BME280;51875;49.994;14.052;2023-08-01T06:09:41;96962.59;;;18.10;100.00
65276;BME280;51875;49.994;14.052;2023-08-01T06:10:57;96962.59;;;18.10;100.00
65276;BME280;51875;49.994;14.052;2023-08-01T06:12:12;96967.03;;;18.09;100.00
65276;BME280;51875;49.994;14.052;2023-08-01T06:13:28;96962.59;;;18.10;100.00
65276;BME280;51875;49.994;14.052;2023-08-01T06:14:43;96964.13;;;18.12;100.00
65276;BME280;51875;49.994;14.052;2023-08-01T06:15:59;96960.66;;;18.12;100.00
65276;BME280;51875;49.994;14.052;2023-08-01T06:17:14;96964.38;;;18.09;100.00
65276;BME280;51875;49.994;14.052;2023-08-01T06:18:30;96965.38;;;18.29;100.00
65276;BME280;51875;49.994;14.052;2023-08-01T06:19:46;96956.06;;;18.14;100.00
65276;BME280;51875;49.994;14.052;2023-08-01T06:21:02;96960.97;;;18.18;100.00
65276;BME280;51875;49.994;14.052;2023-08-01T06:22:18;96952.22;;;18.06;100.00
65276;BME280;51875;49.994;14.052;2023-08-01T06:23:33;96945.03;;;17.97;100.00
65276;BME280;51875;49.994;14.052;2023-08-01T06:24:49;96962.00;;;18.06;100.00
65276;BME280;51875;49.994;14.052;2023-08-01T06:26:04;96953.41;;;18.35;100.00
65276;BME280;51875;49.994;14.052;2023-08-01T06:27:20;96944.50;;;18.15;100.00
65276;BME280;51875;49.994;14.052;2023-08-01T06:28:35;96942.94;;;18.33;100.00
65276;BME280;51875;49.994;14.052;2023-08-01T06:29:51;96940.13;;;18.25;100.00
65276;BME280;51875;49.994;14.052;2023-08-01T06:31:07;96940.28;;;18.12;100.00
65276;BME280;51875;49.994;14.052;2023-08-01T06:32:22;96936.44;;;18.38;100.00